sensor_id;sensor_type;location;lat;lon;timestamp;P1;durP1;ratioP1;P2;durP2;ratioP2
35899;SDS011;21998;44.112;12.318;2022-08-11T08:16:23;8.20;;;2.17;;
35899;SDS011;21998;44.112;12.318;2022-08-11T08:19:10;8.38;;;2.05;;
35899;SDS011;21998;44.112;12.318;2022-08-11T08:21:39;5.65;;;1.73;;
35899;SDS011;21998;44.112;12.318;2022-08-11T08:24:07;15.65;;;2.58;;
35899;SDS011;21998;44.112;12.318;2022-08-11T08:26:34;7.13;;;2.20;;
35899;SDS011;21998;44.112;12.318;2022-08-11T08:29:19;5.93;;;1.75;;
35899;SDS011;21998;44.112;12.318;2022-08-11T08:32:05;8.00;;;2.45;;
35899;SDS011;21998;44.112;12.318;2022-08-11T08:34:33;6.18;;;1.83;;
35899;SDS011;21998;44.112;12.318;2022-08-11T08:37:01;5.85;;;1.90;;
35899;SDS011;21998;44.112;12.318;2022-08-11T08:39:27;2.67;;;1.10;;
35899;SDS011;21998;44.112;12.318;2022-08-11T08:41:57;8.60;;;1.92;;
35899;SDS011;21998;44.112;12.318;2022-08-11T08:44:26;7.28;;;1.80;;
35899;SDS011;21998;44.112;12.318;2022-08-11T08:46:57;9.57;;;1.60;;
35899;SDS011;21998;44.112;12.318;2022-08-11T08:49:58;5.20;;;1.42;;
35899;SDS011;21998;44.112;12.318;2022-08-11T08:52:21;5.57;;;1.67;;
35899;SDS011;21998;44.112;12.318;2022-08-11T08:54:53;14.98;;;1.80;;
35899;SDS011;21998;44.112;12.318;2022-08-11T08:57:21;3.72;;;1.48;;
35899;SDS011;21998;44.112;12.318;2022-08-11T08:59:48;7.22;;;1.77;;
35899;SDS011;21998;44.112;12.318;2022-08-11T09:02:15;6.72;;;1.50;;
35899;SDS011;21998;44.112;12.318;2022-08-11T09:04:45;9.27;;;1.80;;
35899;SDS011;21998;44.112;12.318;2022-08-11T09:07:13;8.13;;;1.55;;
35899;SDS011;21998;44.112;12.318;2022-08-11T09:09:42;10.50;;;1.27;;
35899;SDS011;21998;44.112;12.318;2022-08-11T09:12:10;7.07;;;1.02;;
35899;SDS011;21998;44.112;12.318;2022-08-11T09:14:38;5.50;;;1.08;;
35899;SDS011;21998;44.112;12.318;2022-08-11T09:17:24;8.63;;;1.10;;
35899;SDS011;21998;44.112;12.318;2022-08-11T09:19:53;4.82;;;1.08;;
35899;SDS011;21998;44.112;12.318;2022-08-11T09:22:25;2.63;;;1.15;;
35899;SDS011;21998;44.112;12.318;2022-08-11T09:25:10;4.15;;;1.33;;
35899;SDS011;21998;44.112;12.318;2022-08-11T09:27:56;7.28;;;1.50;;
35899;SDS011;21998;44.112;12.318;2022-08-11T09:30:23;5.78;;;1.40;;
35899;SDS011;21998;44.112;12.318;2022-08-11T09:32:55;10.80;;;1.40;;
35899;SDS011;21998;44.112;12.318;2022-08-11T09:35:28;2.65;;;0.82;;
35899;SDS011;21998;44.112;12.318;2022-08-11T09:37:58;3.00;;;1.15;;
35899;SDS011;21998;44.112;12.318;2022-08-11T09:40:45;1.92;;;0.60;;
35899;SDS011;21998;44.112;12.318;2022-08-11T09:43:13;7.43;;;0.90;;
35899;SDS011;21998;44.112;12.318;2022-08-11T09:46:00;4.47;;;1.15;;
35899;SDS011;21998;44.112;12.318;2022-08-11T09:48:29;3.47;;;0.77;;
35899;SDS011;21998;44.112;12.318;2022-08-11T09:50:59;2.63;;;0.80;;
35899;SDS011;21998;44.112;12.318;2022-08-11T09:53:27;4.22;;;0.70;;
35899;SDS011;21998;44.112;12.318;2022-08-11T09:55:57;4.63;;;0.90;;
35899;SDS011;21998;44.112;12.318;2022-08-11T09:58:44;3.65;;;0.80;;
35899;SDS011;21998;44.112;12.318;2022-08-11T10:01:10;5.55;;;0.98;;
35899;SDS011;21998;44.112;12.318;2022-08-11T10:04:12;2.60;;;1.05;;
35899;SDS011;21998;44.112;12.318;2022-08-11T10:06:43;5.07;;;0.82;;
35899;SDS011;21998;44.112;12.318;2022-08-11T10:12:22;2.17;;;0.77;;
35899;SDS011;21998;44.112;12.318;2022-08-11T10:14:52;1.75;;;0.80;;
35899;SDS011;21998;44.112;12.318;2022-08-11T10:17:41;7.57;;;0.93;;
35899;SDS011;21998;44.112;12.318;2022-08-11T10:20:31;5.18;;;0.95;;
35899;SDS011;21998;44.112;12.318;2022-08-11T10:22:59;3.03;;;0.88;;
35899;SDS011;21998;44.112;12.318;2022-08-11T10:25:45;3.80;;;0.87;;
35899;SDS011;21998;44.112;12.318;2022-08-11T10:28:30;2.70;;;0.65;;
35899;SDS011;21998;44.112;12.318;2022-08-11T10:30:57;3.30;;;0.65;;
35899;SDS011;21998;44.112;12.318;2022-08-11T10:33:42;5.72;;;0.88;;
35899;SDS011;21998;44.112;12.318;2022-08-11T10:36:38;5.70;;;0.73;;
35899;SDS011;21998;44.112;12.318;2022-08-11T10:39:13;3.88;;;0.88;;
35899;SDS011;21998;44.112;12.318;2022-08-11T10:41:44;2.45;;;0.70;;
35899;SDS011;21998;44.112;12.318;2022-08-11T10:44:39;1.95;;;0.85;;
35899;SDS011;21998;44.112;12.318;2022-08-11T10:47:09;2.35;;;0.65;;
35899;SDS011;21998;44.112;12.318;2022-08-11T10:49:55;2.67;;;0.82;;
35899;SDS011;21998;44.112;12.318;2022-08-11T10:52:40;6.45;;;0.82;;
35899;SDS011;21998;44.112;12.318;2022-08-11T10:55:25;3.05;;;0.75;;
35899;SDS011;21998;44.112;12.318;2022-08-11T10:58:10;3.55;;;1.15;;
35899;SDS011;21998;44.112;12.318;2022-08-11T11:00:55;2.58;;;0.40;;
35899;SDS011;21998;44.112;12.318;2022-08-11T11:03:25;5.50;;;0.70;;
35899;SDS011;21998;44.112;12.318;2022-08-11T11:05:53;3.42;;;0.80;;
35899;SDS011;21998;44.112;12.318;2022-08-11T11:08:27;2.33;;;0.70;;
35899;SDS011;21998;44.112;12.318;2022-08-11T11:11:13;4.75;;;0.77;;
35899;SDS011;21998;44.112;12.318;2022-08-11T11:13:42;2.70;;;0.70;;
35899;SDS011;21998;44.112;12.318;2022-08-11T11:16:32;4.03;;;0.75;;
35899;SDS011;21998;44.112;12.318;2022-08-11T11:19:41;5.60;;;0.70;;
35899;SDS011;21998;44.112;12.318;2022-08-11T11:22:07;3.30;;;0.80;;
35899;SDS011;21998;44.112;12.318;2022-08-11T11:31:05;1.52;;;0.50;;
35899;SDS011;21998;44.112;12.318;2022-08-11T11:33:59;3.63;;;0.73;;
35899;SDS011;21998;44.112;12.318;2022-08-11T11:36:46;1.52;;;0.70;;
35899;SDS011;21998;44.112;12.318;2022-08-11T11:39:19;5.57;;;0.90;;
35899;SDS011;21998;44.112;12.318;2022-08-11T11:41:51;4.47;;;0.95;;
35899;SDS011;21998;44.112;12.318;2022-08-11T11:44:20;7.25;;;1.20;;
35899;SDS011;21998;44.112;12.318;2022-08-11T11:46:47;5.38;;;0.77;;
35899;SDS011;21998;44.112;12.318;2022-08-11T11:49:15;4.18;;;0.80;;
35899;SDS011;21998;44.112;12.318;2022-08-11T11:51:43;1.55;;;0.60;;
35899;SDS011;21998;44.112;12.318;2022-08-11T11:54:15;2.30;;;0.68;;
35899;SDS011;21998;44.112;12.318;2022-08-11T11:56:42;3.30;;;0.90;;
35899;SDS011;21998;44.112;12.318;2022-08-11T11:59:09;4.50;;;0.70;;
35899;SDS011;21998;44.112;12.318;2022-08-11T12:01:55;2.88;;;0.60;;
35899;SDS011;21998;44.112;12.318;2022-08-11T12:04:22;8.63;;;0.85;;
35899;SDS011;21998;44.112;12.318;2022-08-11T12:06:50;4.15;;;0.68;;
35899;SDS011;21998;44.112;12.318;2022-08-11T12:09:36;0.95;;;0.50;;
35899;SDS011;21998;44.112;12.318;2022-08-11T12:12:03;3.75;;;0.88;;
35899;SDS011;21998;44.112;12.318;2022-08-11T12:14:47;7.07;;;0.60;;
35899;SDS011;21998;44.112;12.318;2022-08-11T12:17:14;5.10;;;0.70;;
35899;SDS011;21998;44.112;12.318;2022-08-11T12:19:40;6.93;;;0.60;;
35899;SDS011;21998;44.112;12.318;2022-08-11T12:22:06;6.13;;;0.82;;
35899;SDS011;21998;44.112;12.318;2022-08-11T12:24:51;5.18;;;0.60;;
35899;SDS011;21998;44.112;12.318;2022-08-11T12:27:36;3.33;;;0.77;;
35899;SDS011;21998;44.112;12.318;2022-08-11T12:30:04;9.20;;;0.90;;
35899;SDS011;21998;44.112;12.318;2022-08-11T12:32:33;1.58;;;0.70;;
35899;SDS011;21998;44.112;12.318;2022-08-11T12:35:01;1.88;;;0.68;;
35899;SDS011;21998;44.112;12.318;2022-08-11T12:37:33;4.70;;;0.90;;
35899;SDS011;21998;44.112;12.318;2022-08-11T12:40:14;6.50;;;0.80;;
35899;SDS011;21998;44.112;12.318;2022-08-11T12:43:03;1.40;;;0.70;;
35899;SDS011;21998;44.112;12.318;2022-08-11T12:45:52;2.38;;;0.70;;
35899;SDS011;21998;44.112;12.318;2022-08-11T12:48:22;4.38;;;0.88;;
35899;SDS011;21998;44.112;12.318;2022-08-11T12:51:10;5.28;;;0.80;;
35899;SDS011;21998;44.112;12.318;2022-08-11T12:54:44;4.03;;;0.75;;
35899;SDS011;21998;44.112;12.318;2022-08-11T12:57:00;7.07;;;1.13;;
35899;SDS011;21998;44.112;12.318;2022-08-11T12:59:50;3.03;;;0.85;;
35899;SDS011;21998;44.112;12.318;2022-08-11T13:02:35;8.63;;;0.90;;
35899;SDS011;21998;44.112;12.318;2022-08-11T13:05:20;2.92;;;0.70;;
35899;SDS011;21998;44.112;12.318;2022-08-11T13:07:47;6.03;;;0.90;;
35899;SDS011;21998;44.112;12.318;2022-08-11T13:10:14;7.82;;;0.82;;
35899;SDS011;21998;44.112;12.318;2022-08-11T13:13:01;5.40;;;0.80;;
35899;SDS011;21998;44.112;12.318;2022-08-11T13:15:32;5.75;;;0.88;;
35899;SDS011;21998;44.112;12.318;2022-08-11T13:18:02;2.10;;;0.85;;
35899;SDS011;21998;44.112;12.318;2022-08-11T13:20:32;5.05;;;0.85;;
35899;SDS011;21998;44.112;12.318;2022-08-11T13:22:59;1.58;;;0.75;;
35899;SDS011;21998;44.112;12.318;2022-08-11T13:25:26;9.35;;;0.93;;
35899;SDS011;21998;44.112;12.318;2022-08-11T13:27:56;6.97;;;1.30;;
35899;SDS011;21998;44.112;12.318;2022-08-11T13:30:25;8.13;;;0.90;;
35899;SDS011;21998;44.112;12.318;2022-08-11T13:33:13;5.85;;;0.70;;
35899;SDS011;21998;44.112;12.318;2022-08-11T13:35:41;6.35;;;0.70;;
35899;SDS011;21998;44.112;12.318;2022-08-11T13:38:14;3.35;;;0.82;;
35899;SDS011;21998;44.112;12.318;2022-08-11T13:40:43;3.45;;;1.08;;
35899;SDS011;21998;44.112;12.318;2022-08-11T13:43:10;4.72;;;0.90;;
35899;SDS011;21998;44.112;12.318;2022-08-11T13:45:38;3.03;;;0.88;;
35899;SDS011;21998;44.112;12.318;2022-08-11T13:48:07;3.65;;;0.80;;
35899;SDS011;21998;44.112;12.318;2022-08-11T13:50:35;3.95;;;1.10;;
35899;SDS011;21998;44.112;12.318;2022-08-11T13:53:28;5.07;;;0.90;;
35899;SDS011;21998;44.112;12.318;2022-08-11T13:55:58;6.45;;;1.33;;
35899;SDS011;21998;44.112;12.318;2022-08-11T13:58:25;16.85;;;0.93;;
35899;SDS011;21998;44.112;12.318;2022-08-11T14:00:53;6.68;;;1.00;;
35899;SDS011;21998;44.112;12.318;2022-08-11T14:03:24;7.22;;;0.82;;
35899;SDS011;21998;44.112;12.318;2022-08-11T14:05:52;5.68;;;0.95;;
35899;SDS011;21998;44.112;12.318;2022-08-11T14:08:25;3.22;;;0.80;;
35899;SDS011;21998;44.112;12.318;2022-08-11T14:10:58;3.63;;;0.85;;
35899;SDS011;21998;44.112;12.318;2022-08-11T14:13:45;5.05;;;0.90;;
35899;SDS011;21998;44.112;12.318;2022-08-11T14:16:28;4.90;;;0.85;;
35899;SDS011;21998;44.112;12.318;2022-08-11T14:18:57;2.38;;;0.65;;
35899;SDS011;21998;44.112;12.318;2022-08-11T14:21:27;9.63;;;0.90;;
35899;SDS011;21998;44.112;12.318;2022-08-11T14:24:13;3.97;;;1.17;;
35899;SDS011;21998;44.112;12.318;2022-08-11T14:26:42;6.57;;;0.90;;
35899;SDS011;21998;44.112;12.318;2022-08-11T14:29:16;6.97;;;1.10;;
35899;SDS011;21998;44.112;12.318;2022-08-11T14:31:45;1.05;;;0.65;;
35899;SDS011;21998;44.112;12.318;2022-08-11T14:34:13;5.57;;;0.80;;
35899;SDS011;21998;44.112;12.318;2022-08-11T14:36:42;4.70;;;0.63;;
35899;SDS011;21998;44.112;12.318;2022-08-11T14:39:10;5.63;;;1.10;;
35899;SDS011;21998;44.112;12.318;2022-08-11T14:41:39;2.53;;;0.95;;
35899;SDS011;21998;44.112;12.318;2022-08-11T14:44:25;10.52;;;2.53;;
35899;SDS011;21998;44.112;12.318;2022-08-11T14:47:13;4.70;;;0.80;;
35899;SDS011;21998;44.112;12.318;2022-08-11T14:49:41;7.93;;;1.17;;
35899;SDS011;21998;44.112;12.318;2022-08-11T14:52:12;4.72;;;1.67;;
35899;SDS011;21998;44.112;12.318;2022-08-11T14:54:43;8.18;;;0.85;;
35899;SDS011;21998;44.112;12.318;2022-08-11T15:04:22;7.60;;;1.92;;
35899;SDS011;21998;44.112;12.318;2022-08-11T15:06:49;3.58;;;0.70;;
